Terminal Aerodrome Forecast
Issued by NWS Louisville, KY

Home | Current Version | Previous Version | Text Only | Print | Product List | Glossary On
Versions: 1 2 3 4 5 6 7 8 9 10 11 12 13 14 15 16
000
FTUS43 KLMK 150520
TAFSDF
TAF
KSDF 150520Z 1506/1612 15005KT P6SM VCSH OVC035
      TEMPO 1506/1510 4SM -SHSN OVC025
     FM151600 21011G21KT 4SM -SHSN OVC035
     FM151900 24011G20KT 2SM -SHSN OVC020
     FM160100 28009KT P6SM OVC045 PROB30 1601/1603 4SM -SN OVC025=

USA.gov is the U.S. government's official web portal to all federal, state and local government web resources and services.